sensor_id;sensor_type;location;lat;lon;timestamp;pressure;altitude;pressure_sealevel;temperature;humidity
24336;BME280;33098;52.400;16.880;2023-09-12T00:01:47;100423.34;;;19.65;86.91
24336;BME280;33098;52.400;16.880;2023-09-12T00:04:14;100421.88;;;19.63;87.05
24336;BME280;33098;52.400;16.880;2023-09-12T00:06:41;100421.40;;;19.64;87.43
24336;BME280;33098;52.400;16.880;2023-09-12T00:09:09;100415.36;;;19.63;87.63
24336;BME280;33098;52.400;16.880;2023-09-12T00:11:39;100418.45;;;19.61;87.52
24336;BME280;33098;52.400;16.880;2023-09-12T00:14:09;100418.84;;;19.55;87.61
24336;BME280;33098;52.400;16.880;2023-09-12T00:16:35;100415.36;;;19.49;87.77
24336;BME280;33098;52.400;16.880;2023-09-12T00:19:08;100416.67;;;19.42;87.88
24336;BME280;33098;52.400;16.880;2023-09-12T00:21:35;100414.55;;;19.40;88.20
24336;BME280;33098;52.400;16.880;2023-09-12T00:24:02;100415.31;;;19.39;88.28
24336;BME280;33098;52.400;16.880;2023-09-12T00:26:32;100414.89;;;19.40;88.60
24336;BME280;33098;52.400;16.880;2023-09-12T00:28:59;100415.14;;;19.38;88.46
24336;BME280;33098;52.400;16.880;2023-09-12T00:31:26;100416.70;;;19.34;88.63
24336;BME280;33098;52.400;16.880;2023-09-12T00:33:59;100414.55;;;19.36;88.97
24336;BME280;33098;52.400;16.880;2023-09-12T00:36:28;100418.29;;;19.38;89.04
24336;BME280;33098;52.400;16.880;2023-09-12T00:38:59;100417.31;;;19.32;89.03
24336;BME280;33098;52.400;16.880;2023-09-12T00:41:29;100417.76;;;19.25;89.00
24336;BME280;33098;52.400;16.880;2023-09-12T00:43:58;100417.66;;;19.20;89.29
24336;BME280;33098;52.400;16.880;2023-09-12T00:46:28;100416.21;;;19.25;89.57
24336;BME280;33098;52.400;16.880;2023-09-12T00:48:59;100421.62;;;19.27;89.47
24336;BME280;33098;52.400;16.880;2023-09-12T00:51:30;100420.61;;;19.21;89.20
24336;BME280;33098;52.400;16.880;2023-09-12T00:53:58;100422.23;;;19.16;89.62
24336;BME280;33098;52.400;16.880;2023-09-12T00:56:28;100423.08;;;19.10;89.77
24336;BME280;33098;52.400;16.880;2023-09-12T00:58:55;100419.50;;;19.04;89.91
24336;BME280;33098;52.400;16.880;2023-09-12T01:01:23;100422.40;;;19.03;90.16
24336;BME280;33098;52.400;16.880;2023-09-12T01:03:55;100424.39;;;18.99;90.23
24336;BME280;33098;52.400;16.880;2023-09-12T01:06:25;100417.27;;;19.00;90.60
24336;BME280;33098;52.400;16.880;2023-09-12T01:08:59;100419.20;;;19.03;90.75
24336;BME280;33098;52.400;16.880;2023-09-12T01:11:26;100418.56;;;19.07;90.87
24336;BME280;33098;52.400;16.880;2023-09-12T01:13:59;100413.58;;;19.08;90.76
24336;BME280;33098;52.400;16.880;2023-09-12T01:16:34;100412.52;;;19.09;90.86
24336;BME280;33098;52.400;16.880;2023-09-12T01:19:05;100413.73;;;19.04;90.59
24336;BME280;33098;52.400;16.880;2023-09-12T01:27:42;100417.09;;;18.87;90.95
24336;BME280;33098;52.400;16.880;2023-09-12T01:30:12;100418.42;;;18.83;91.13
24336;BME280;33098;52.400;16.880;2023-09-12T01:32:43;100415.27;;;18.81;91.37
24336;BME280;33098;52.400;16.880;2023-09-12T01:35:11;100414.09;;;18.83;91.55
24336;BME280;33098;52.400;16.880;2023-09-12T01:37:37;100416.73;;;18.85;91.49
24336;BME280;33098;52.400;16.880;2023-09-12T01:40:05;100417.73;;;18.87;91.52
24336;BME280;33098;52.400;16.880;2023-09-12T01:42:42;100418.85;;;18.87;91.36
24336;BME280;33098;52.400;16.880;2023-09-12T01:45:17;100417.79;;;18.82;91.47
24336;BME280;33098;52.400;16.880;2023-09-12T01:47:47;100423.55;;;18.77;91.44
24336;BME280;33098;52.400;16.880;2023-09-12T01:50:15;100422.51;;;18.74;91.77
24336;BME280;33098;52.400;16.880;2023-09-12T01:52:44;100423.82;;;18.76;91.88
24336;BME280;33098;52.400;16.880;2023-09-12T01:55:11;100425.37;;;18.77;91.83
24336;BME280;33098;52.400;16.880;2023-09-12T01:57:38;100424.03;;;18.71;91.86
24336;BME280;33098;52.400;16.880;2023-09-12T02:00:06;100426.82;;;18.67;92.07
24336;BME280;33098;52.400;16.880;2023-09-12T02:02:33;100426.83;;;18.64;92.23
24336;BME280;33098;52.400;16.880;2023-09-12T02:05:10;100421.19;;;18.66;92.35
24336;BME280;33098;52.400;16.880;2023-09-12T02:07:41;100420.16;;;18.64;92.32
24336;BME280;33098;52.400;16.880;2023-09-12T02:10:08;100418.36;;;18.58;92.27
24336;BME280;33098;52.400;16.880;2023-09-12T02:12:39;100419.85;;;18.55;92.47
24336;BME280;33098;52.400;16.880;2023-09-12T02:15:07;100417.98;;;18.49;92.78
24336;BME280;33098;52.400;16.880;2023-09-12T02:17:35;100419.67;;;18.48;93.17
24336;BME280;33098;52.400;16.880;2023-09-12T02:20:01;100419.11;;;18.45;93.17
24336;BME280;33098;52.400;16.880;2023-09-12T02:22:31;100416.85;;;18.46;93.55
24336;BME280;33098;52.400;16.880;2023-09-12T02:24:58;100419.42;;;18.52;93.67
24336;BME280;33098;52.400;16.880;2023-09-12T02:27:25;100418.51;;;18.55;93.52
24336;BME280;33098;52.400;16.880;2023-09-12T02:29:52;100419.96;;;18.58;93.56
24336;BME280;33098;52.400;16.880;2023-09-12T02:32:19;100419.16;;;18.62;93.50
24336;BME280;33098;52.400;16.880;2023-09-12T02:34:46;100421.15;;;18.59;93.42
24336;BME280;33098;52.400;16.880;2023-09-12T02:37:12;100419.69;;;18.54;93.30
24336;BME280;33098;52.400;16.880;2023-09-12T02:39:42;100419.58;;;18.47;93.40
24336;BME280;33098;52.400;16.880;2023-09-12T02:42:09;100421.02;;;18.41;93.48
24336;BME280;33098;52.400;16.880;2023-09-12T02:44:36;100422.58;;;18.35;93.60
24336;BME280;33098;52.400;16.880;2023-09-12T02:47:05;100425.23;;;18.30;93.89
24336;BME280;33098;52.400;16.880;2023-09-12T02:49:32;100419.83;;;18.32;94.33
24336;BME280;33098;52.400;16.880;2023-09-12T02:51:59;100420.39;;;18.32;94.42
24336;BME280;33098;52.400;16.880;2023-09-12T02:54:26;100419.82;;;18.31;94.42
24336;BME280;33098;52.400;16.880;2023-09-12T02:56:53;100416.80;;;18.32;94.52
24336;BME280;33098;52.400;16.880;2023-09-12T02:59:20;100414.66;;;18.35;94.66
24336;BME280;33098;52.400;16.880;2023-09-12T03:01:47;100417.71;;;18.38;94.66
24336;BME280;33098;52.400;16.880;2023-09-12T03:04:14;100417.06;;;18.42;94.63
24336;BME280;33098;52.400;16.880;2023-09-12T03:06:40;100418.80;;;18.40;94.51
24336;BME280;33098;52.400;16.880;2023-09-12T03:09:10;100420.85;;;18.37;94.41
24336;BME280;33098;52.400;16.880;2023-09-12T03:11:38;100420.08;;;18.35;94.36
24336;BME280;33098;52.400;16.880;2023-09-12T03:14:04;100422.02;;;18.28;94.42
24336;BME280;33098;52.400;16.880;2023-09-12T03:16:33;100418.98;;;18.19;94.47
24336;BME280;33098;52.400;16.880;2023-09-12T03:19:00;100418.77;;;18.18;94.75
24336;BME280;33098;52.400;16.880;2023-09-12T03:21:30;100418.70;;;18.20;95.13
24336;BME280;33098;52.400;16.880;2023-09-12T03:23:57;100421.20;;;18.23;95.28
24336;BME280;33098;52.400;16.880;2023-09-12T03:26:24;100417.05;;;18.23;95.18
24336;BME280;33098;52.400;16.880;2023-09-12T03:28:51;100414.93;;;18.21;95.33
24336;BME280;33098;52.400;16.880;2023-09-12T03:31:18;100417.67;;;18.22;95.39
24336;BME280;33098;52.400;16.880;2023-09-12T03:33:49;100414.25;;;18.19;95.30
24336;BME280;33098;52.400;16.880;2023-09-12T03:36:17;100416.59;;;18.12;95.35
24336;BME280;33098;52.400;16.880;2023-09-12T03:38:44;100415.14;;;18.14;95.59
24336;BME280;33098;52.400;16.880;2023-09-12T03:41:11;100416.80;;;18.18;95.91
24336;BME280;33098;52.400;16.880;2023-09-12T03:43:38;100420.58;;;18.22;95.86
24336;BME280;33098;52.400;16.880;2023-09-12T03:46:09;100419.94;;;18.26;95.91
24336;BME280;33098;52.400;16.880;2023-09-12T03:48:36;100418.52;;;18.24;95.74
24336;BME280;33098;52.400;16.880;2023-09-12T03:51:06;100419.04;;;18.23;95.74
24336;BME280;33098;52.400;16.880;2023-09-12T03:53:33;100422.71;;;18.23;95.70
24336;BME280;33098;52.400;16.880;2023-09-12T03:56:00;100420.92;;;18.22;95.83
24336;BME280;33098;52.400;16.880;2023-09-12T03:58:30;100419.38;;;18.23;95.82
24336;BME280;33098;52.400;16.880;2023-09-12T04:01:00;100419.02;;;18.15;95.53
24336;BME280;33098;52.400;16.880;2023-09-12T04:03:27;100416.40;;;18.09;95.70
24336;BME280;33098;52.400;16.880;2023-09-12T04:06:04;100417.95;;;18.05;95.91
24336;BME280;33098;52.400;16.880;2023-09-12T04:08:37;100413.89;;;18.01;96.15
24336;BME280;33098;52.400;16.880;2023-09-12T04:11:09;100409.57;;;17.98;96.34
24336;BME280;33098;52.400;16.880;2023-09-12T04:13:37;100410.44;;;17.95;96.27
24336;BME280;33098;52.400;16.880;2023-09-12T04:16:07;100413.16;;;17.93;96.48
24336;BME280;33098;52.400;16.880;2023-09-12T04:18:34;100408.70;;;17.93;96.71
24336;BME280;33098;52.400;16.880;2023-09-12T04:21:01;100413.38;;;17.94;96.87
24336;BME280;33098;52.400;16.880;2023-09-12T04:23:27;100407.38;;;17.97;96.93
24336;BME280;33098;52.400;16.880;2023-09-12T04:25:54;100407.52;;;17.97;96.93
24336;BME280;33098;52.400;16.880;2023-09-12T04:28:21;100407.05;;;18.02;97.09
24336;BME280;33098;52.400;16.880;2023-09-12T04:30:47;100408.90;;;18.03;96.90
24336;BME280;33098;52.400;16.880;2023-09-12T04:33:17;100408.13;;;17.98;96.89
24336;BME280;33098;52.400;16.880;2023-09-12T04:35:44;100407.08;;;17.95;97.05
24336;BME280;33098;52.400;16.880;2023-09-12T04:38:11;100407.34;;;17.89;97.14
24336;BME280;33098;52.400;16.880;2023-09-12T04:40:37;100408.45;;;17.86;97.46
24336;BME280;33098;52.400;16.880;2023-09-12T04:43:06;100408.52;;;17.88;97.74
24336;BME280;33098;52.400;16.880;2023-09-12T04:45:33;100408.91;;;17.89;97.98
24336;BME280;33098;52.400;16.880;2023-09-12T04:48:00;100409.15;;;17.89;98.12
24336;BME280;33098;52.400;16.880;2023-09-12T04:50:27;100411.77;;;17.93;98.36
24336;BME280;33098;52.400;16.880;2023-09-12T04:52:54;100415.70;;;17.96;98.62
24336;BME280;33098;52.400;16.880;2023-09-12T04:55:21;100415.81;;;18.02;98.73
24336;BME280;33098;52.400;16.880;2023-09-12T04:57:51;100411.16;;;18.05;98.62
24336;BME280;33098;52.400;16.880;2023-09-12T05:00:18;100415.39;;;18.06;98.60
24336;BME280;33098;52.400;16.880;2023-09-12T05:02:52;100415.60;;;18.07;98.69
24336;BME280;33098;52.400;16.880;2023-09-12T05:05:21;100416.33;;;18.08;98.83
24336;BME280;33098;52.400;16.880;2023-09-12T05:07:52;100415.55;;;18.14;99.13
24336;BME280;33098;52.400;16.880;2023-09-12T05:10:19;100416.81;;;18.21;99.12
24336;BME280;33098;52.400;16.880;2023-09-12T05:12:49;100416.86;;;18.26;99.26
24336;BME280;33098;52.400;16.880;2023-09-12T05:15:23;100418.15;;;18.29;99.09
24336;BME280;33098;52.400;16.880;2023-09-12T05:17:52;100419.23;;;18.31;99.23
24336;BME280;33098;52.400;16.880;2023-09-12T05:20:18;100419.89;;;18.32;99.26
24336;BME280;33098;52.400;16.880;2023-09-12T05:22:46;100421.48;;;18.33;99.28
24336;BME280;33098;52.400;16.880;2023-09-12T05:25:12;100426.23;;;18.40;99.57
24336;BME280;33098;52.400;16.880;2023-09-12T05:27:42;100428.46;;;18.46;99.73
24336;BME280;33098;52.400;16.880;2023-09-12T05:30:10;100431.47;;;18.50;99.75
24336;BME280;33098;52.400;16.880;2023-09-12T05:32:41;100430.98;;;18.51;99.89
24336;BME280;33098;52.400;16.880;2023-09-12T05:35:08;100428.89;;;18.52;99.96
24336;BME280;33098;52.400;16.880;2023-09-12T05:37:35;100427.83;;;18.59;99.97
24336;BME280;33098;52.400;16.880;2023-09-12T05:40:03;100427.95;;;18.65;99.98
24336;BME280;33098;52.400;16.880;2023-09-12T05:42:31;100428.83;;;18.78;100.00
24336;BME280;33098;52.400;16.880;2023-09-12T05:44:58;100426.36;;;18.88;99.95
24336;BME280;33098;52.400;16.880;2023-09-12T05:47:25;100427.92;;;18.93;99.62
24336;BME280;33098;52.400;16.880;2023-09-12T05:49:52;100431.89;;;19.01;99.50
24336;BME280;33098;52.400;16.880;2023-09-12T05:52:21;100429.90;;;19.13;99.39
24336;BME280;33098;52.400;16.880;2023-09-12T05:54:48;100430.88;;;19.30;99.15
24336;BME280;33098;52.400;16.880;2023-09-12T05:57:15;100427.72;;;19.40;98.39
24336;BME280;33098;52.400;16.880;2023-09-12T05:59:42;100423.80;;;19.44;97.94
24336;BME280;33098;52.400;16.880;2023-09-12T06:02:09;100427.72;;;19.48;97.42
24336;BME280;33098;52.400;16.880;2023-09-12T06:04:37;100429.16;;;19.51;96.99
24336;BME280;33098;52.400;16.880;2023-09-12T06:07:04;100433.67;;;19.55;96.84
24336;BME280;33098;52.400;16.880;2023-09-12T06:09:40;100435.10;;;19.59;96.36
24336;BME280;33098;52.400;16.880;2023-09-12T06:12:08;100442.42;;;19.64;96.38
24336;BME280;33098;52.400;16.880;2023-09-12T06:14:38;100440.94;;;19.72;96.24
24336;BME280;33098;52.400;16.880;2023-09-12T06:17:04;100443.25;;;19.80;96.09
24336;BME280;33098;52.400;16.880;2023-09-12T06:19:34;100442.63;;;19.86;95.72
24336;BME280;33098;52.400;16.880;2023-09-12T06:22:03;100440.05;;;19.92;95.23
24336;BME280;33098;52.400;16.880;2023-09-12T06:24:41;100440.80;;;19.98;94.70
24336;BME280;33098;52.400;16.880;2023-09-12T06:27:07;100438.17;;;19.97;94.03
24336;BME280;33098;52.400;16.880;2023-09-12T06:29:34;100442.31;;;20.00;94.01
24336;BME280;33098;52.400;16.880;2023-09-12T06:32:02;100442.58;;;20.05;93.59
24336;BME280;33098;52.400;16.880;2023-09-12T06:34:31;100442.42;;;20.15;93.40
24336;BME280;33098;52.400;16.880;2023-09-12T06:36:58;100440.38;;;20.20;92.91
24336;BME280;33098;52.400;16.880;2023-09-12T06:39:32;100445.57;;;20.24;92.16
24336;BME280;33098;52.400;16.880;2023-09-12T06:41:59;100446.22;;;20.30;91.95
24336;BME280;33098;52.400;16.880;2023-09-12T06:44:30;100449.27;;;20.37;91.77
24336;BME280;33098;52.400;16.880;2023-09-12T06:46:57;100445.17;;;20.46;91.47
24336;BME280;33098;52.400;16.880;2023-09-12T06:49:24;100449.12;;;20.51;90.68
24336;BME280;33098;52.400;16.880;2023-09-12T06:51:53;100449.77;;;20.53;90.13
24336;BME280;33098;52.400;16.880;2023-09-12T06:54:20;100450.44;;;20.59;90.08
24336;BME280;33098;52.400;16.880;2023-09-12T06:56:47;100449.40;;;20.65;89.97
24336;BME280;33098;52.400;16.880;2023-09-12T06:59:14;100447.05;;;20.71;89.41
24336;BME280;33098;52.400;16.880;2023-09-12T07:01:44;100449.50;;;20.76;89.05
24336;BME280;33098;52.400;16.880;2023-09-12T07:04:18;100451.11;;;20.84;88.77
24336;BME280;33098;52.400;16.880;2023-09-12T07:06:48;100454.92;;;20.91;88.69
24336;BME280;33098;52.400;16.880;2023-09-12T07:09:15;100452.27;;;20.98;88.58
24336;BME280;33098;52.400;16.880;2023-09-12T07:11:42;100453.71;;;21.03;88.23
24336;BME280;33098;52.400;16.880;2023-09-12T07:14:09;100449.53;;;21.10;88.11
24336;BME280;33098;52.400;16.880;2023-09-12T07:16:39;100453.39;;;21.15;88.07
24336;BME280;33098;52.400;16.880;2023-09-12T07:19:06;100451.77;;;21.19;87.86
24336;BME280;33098;52.400;16.880;2023-09-12T07:21:32;100451.48;;;21.23;87.37
24336;BME280;33098;52.400;16.880;2023-09-12T07:23:59;100452.50;;;21.29;87.26
24336;BME280;33098;52.400;16.880;2023-09-12T07:26:26;100454.46;;;21.37;86.75
24336;BME280;33098;52.400;16.880;2023-09-12T07:28:58;100450.90;;;21.43;86.53
24336;BME280;33098;52.400;16.880;2023-09-12T07:31:28;100447.83;;;21.49;86.32
24336;BME280;33098;52.400;16.880;2023-09-12T07:33:55;100446.63;;;21.55;86.18
24336;BME280;33098;52.400;16.880;2023-09-12T07:36:22;100450.16;;;21.63;85.86
24336;BME280;33098;52.400;16.880;2023-09-12T07:38:51;100448.27;;;21.68;85.84
24336;BME280;33098;52.400;16.880;2023-09-12T07:41:18;100449.73;;;21.74;85.50
24336;BME280;33098;52.400;16.880;2023-09-12T07:43:51;100452.76;;;21.80;85.22
24336;BME280;33098;52.400;16.880;2023-09-12T07:46:17;100452.14;;;21.86;84.76
24336;BME280;33098;52.400;16.880;2023-09-12T07:48:50;100450.89;;;21.92;84.53
24336;BME280;33098;52.400;16.880;2023-09-12T07:51:20;100451.45;;;21.97;84.57
24336;BME280;33098;52.400;16.880;2023-09-12T07:53:46;100449.69;;;22.02;84.50
24336;BME280;33098;52.400;16.880;2023-09-12T07:56:14;100448.15;;;22.10;84.05
24336;BME280;33098;52.400;16.880;2023-09-12T07:58:40;100449.33;;;22.16;83.93
24336;BME280;33098;52.400;16.880;2023-09-12T08:01:09;100452.75;;;22.21;83.66
24336;BME280;33098;52.400;16.880;2023-09-12T08:03:39;100446.95;;;22.28;83.39
24336;BME280;33098;52.400;16.880;2023-09-12T08:06:06;100450.74;;;22.37;83.14
24336;BME280;33098;52.400;16.880;2023-09-12T08:08:33;100454.48;;;22.45;82.73
24336;BME280;33098;52.400;16.880;2023-09-12T08:11:00;100454.36;;;22.51;82.57
24336;BME280;33098;52.400;16.880;2023-09-12T08:13:29;100456.76;;;22.57;82.22
24336;BME280;33098;52.400;16.880;2023-09-12T08:15:56;100453.24;;;22.63;81.58
24336;BME280;33098;52.400;16.880;2023-09-12T08:18:27;100452.62;;;22.70;81.23
24336;BME280;33098;52.400;16.880;2023-09-12T08:20:55;100451.14;;;22.76;81.12
24336;BME280;33098;52.400;16.880;2023-09-12T08:23:22;100450.16;;;22.82;81.14
24336;BME280;33098;52.400;16.880;2023-09-12T08:25:49;100449.80;;;22.89;80.87
24336;BME280;33098;52.400;16.880;2023-09-12T08:28:16;100453.41;;;22.95;80.44
24336;BME280;33098;52.400;16.880;2023-09-12T08:30:44;100450.25;;;23.01;80.38
24336;BME280;33098;52.400;16.880;2023-09-12T08:33:12;100453.92;;;23.09;79.78
24336;BME280;33098;52.400;16.880;2023-09-12T08:35:44;100458.61;;;23.16;79.84
24336;BME280;33098;52.400;16.880;2023-09-12T08:38:16;100457.36;;;23.20;79.56
24336;BME280;33098;52.400;16.880;2023-09-12T08:40:50;100455.61;;;23.29;79.45
24336;BME280;33098;52.400;16.880;2023-09-12T08:43:28;100459.11;;;23.45;78.85
24336;BME280;33098;52.400;16.880;2023-09-12T08:46:02;100457.76;;;23.56;78.63
24336;BME280;33098;52.400;16.880;2023-09-12T08:48:37;100456.80;;;23.62;78.25
24336;BME280;33098;52.400;16.880;2023-09-12T08:51:06;100458.20;;;23.74;77.92
24336;BME280;33098;52.400;16.880;2023-09-12T08:53:34;100453.30;;;23.83;77.51
24336;BME280;33098;52.400;16.880;2023-09-12T08:56:05;100455.22;;;23.92;77.32
24336;BME280;33098;52.400;16.880;2023-09-12T08:58:35;100455.27;;;24.04;76.79
24336;BME280;33098;52.400;16.880;2023-09-12T09:01:06;100457.40;;;24.14;76.56
24336;BME280;33098;52.400;16.880;2023-09-12T09:03:34;100454.95;;;24.20;76.33
24336;BME280;33098;52.400;16.880;2023-09-12T09:06:09;100456.52;;;24.23;76.10
24336;BME280;33098;52.400;16.880;2023-09-12T09:08:38;100455.20;;;24.27;76.04
24336;BME280;33098;52.400;16.880;2023-09-12T09:11:05;100453.02;;;24.34;75.73
24336;BME280;33098;52.400;16.880;2023-09-12T09:13:33;100454.55;;;24.45;75.89
24336;BME280;33098;52.400;16.880;2023-09-12T09:16:29;100457.64;;;24.48;75.71
24336;BME280;33098;52.400;16.880;2023-09-12T09:21:30;100457.08;;;24.65;74.67
24336;BME280;33098;52.400;16.880;2023-09-12T09:23:59;100450.78;;;24.74;74.52
24336;BME280;33098;52.400;16.880;2023-09-12T09:26:49;100447.61;;;24.78;74.21
24336;BME280;33098;52.400;16.880;2023-09-12T09:29:18;100451.04;;;24.85;73.89
24336;BME280;33098;52.400;16.880;2023-09-12T09:31:50;100451.78;;;24.95;73.24
24336;BME280;33098;52.400;16.880;2023-09-12T09:34:18;100451.44;;;25.08;72.90
24336;BME280;33098;52.400;16.880;2023-09-12T09:36:54;100449.26;;;25.16;72.45
24336;BME280;33098;52.400;16.880;2023-09-12T09:39:24;100451.48;;;25.22;71.73
24336;BME280;33098;52.400;16.880;2023-09-12T09:42:01;100448.34;;;25.33;71.44
24336;BME280;33098;52.400;16.880;2023-09-12T09:44:32;100446.90;;;25.46;70.90
24336;BME280;33098;52.400;16.880;2023-09-12T09:47:00;100447.63;;;25.55;70.18
24336;BME280;33098;52.400;16.880;2023-09-12T09:49:31;100443.21;;;25.64;70.07
24336;BME280;33098;52.400;16.880;2023-09-12T09:52:04;100441.58;;;25.74;69.81
24336;BME280;33098;52.400;16.880;2023-09-12T09:54:34;100440.27;;;25.81;69.84
24336;BME280;33098;52.400;16.880;2023-09-12T09:57:01;100442.52;;;25.94;69.38
24336;BME280;33098;52.400;16.880;2023-09-12T09:59:36;100440.44;;;26.09;68.77
24336;BME280;33098;52.400;16.880;2023-09-12T10:02:05;100435.70;;;26.18;68.46
24336;BME280;33098;52.400;16.880;2023-09-12T10:04:37;100433.32;;;26.29;68.03
24336;BME280;33098;52.400;16.880;2023-09-12T10:07:05;100428.05;;;26.44;67.76
24336;BME280;33098;52.400;16.880;2023-09-12T10:09:40;100431.02;;;26.63;67.12
24336;BME280;33098;52.400;16.880;2023-09-12T10:12:12;100431.63;;;26.78;66.94
24336;BME280;33098;52.400;16.880;2023-09-12T10:14:40;100425.10;;;26.84;66.45
24336;BME280;33098;52.400;16.880;2023-09-12T10:17:09;100424.13;;;26.94;66.03
24336;BME280;33098;52.400;16.880;2023-09-12T10:19:43;100426.83;;;27.06;65.23
24336;BME280;33098;52.400;16.880;2023-09-12T10:24:57;100426.14;;;27.34;62.87
24336;BME280;33098;52.400;16.880;2023-09-12T10:27:29;100430.52;;;27.53;61.28
24336;BME280;33098;52.400;16.880;2023-09-12T10:30:01;100428.72;;;27.68;60.15
24336;BME280;33098;52.400;16.880;2023-09-12T10:32:38;100425.84;;;27.80;60.27
24336;BME280;33098;52.400;16.880;2023-09-12T10:35:09;100426.99;;;27.94;58.72
24336;BME280;33098;52.400;16.880;2023-09-12T10:37:36;100426.94;;;28.09;58.95
24336;BME280;33098;52.400;16.880;2023-09-12T10:40:08;100424.80;;;28.20;58.01
24336;BME280;33098;52.400;16.880;2023-09-12T10:42:36;100425.86;;;28.36;57.62
24336;BME280;33098;52.400;16.880;2023-09-12T10:45:07;100424.14;;;28.51;56.80
24336;BME280;33098;52.400;16.880;2023-09-12T10:47:38;100424.36;;;28.66;56.38
24336;BME280;33098;52.400;16.880;2023-09-12T10:50:08;100421.83;;;28.77;56.69
24336;BME280;33098;52.400;16.880;2023-09-12T10:52:37;100422.04;;;28.85;55.14
24336;BME280;33098;52.400;16.880;2023-09-12T10:55:07;100425.30;;;28.96;54.57
24336;BME280;33098;52.400;16.880;2023-09-12T10:58:05;100421.88;;;29.05;54.29
24336;BME280;33098;52.400;16.880;2023-09-12T11:00:36;100418.23;;;29.18;54.95
24336;BME280;33098;52.400;16.880;2023-09-12T11:03:37;100419.59;;;29.31;53.90
24336;BME280;33098;52.400;16.880;2023-09-12T11:06:20;100417.62;;;29.46;54.06
24336;BME280;33098;52.400;16.880;2023-09-12T11:09:15;100411.27;;;29.58;54.00
24336;BME280;33098;52.400;16.880;2023-09-12T11:11:37;100409.80;;;29.68;53.15
24336;BME280;33098;52.400;16.880;2023-09-12T11:14:05;100405.16;;;29.79;53.30
24336;BME280;33098;52.400;16.880;2023-09-12T11:16:32;100412.13;;;29.89;51.19
24336;BME280;33098;52.400;16.880;2023-09-12T11:19:19;100414.23;;;29.91;47.21
24336;BME280;33098;52.400;16.880;2023-09-12T11:21:49;100409.90;;;29.97;47.94
24336;BME280;33098;52.400;16.880;2023-09-12T11:24:18;100411.47;;;30.10;47.44
24336;BME280;33098;52.400;16.880;2023-09-12T11:26:58;100413.61;;;30.22;48.27
24336;BME280;33098;52.400;16.880;2023-09-12T11:29:39;100413.65;;;30.36;48.37
24336;BME280;33098;52.400;16.880;2023-09-12T11:32:07;100409.91;;;30.54;48.06
24336;BME280;33098;52.400;16.880;2023-09-12T11:34:40;100413.73;;;30.66;46.06
24336;BME280;33098;52.400;16.880;2023-09-12T11:37:08;100412.27;;;30.76;46.37
24336;BME280;33098;52.400;16.880;2023-09-12T11:39:42;100410.46;;;30.96;46.56
24336;BME280;33098;52.400;16.880;2023-09-12T11:42:14;100406.44;;;31.06;44.38
24336;BME280;33098;52.400;16.880;2023-09-12T11:44:42;100407.70;;;31.19;44.98
24336;BME280;33098;52.400;16.880;2023-09-12T11:47:11;100409.73;;;31.30;45.27
24336;BME280;33098;52.400;16.880;2023-09-12T11:49:40;100408.38;;;31.44;44.93
24336;BME280;33098;52.400;16.880;2023-09-12T11:52:15;100410.04;;;31.58;44.27
24336;BME280;33098;52.400;16.880;2023-09-12T11:54:53;100408.80;;;31.72;42.73
24336;BME280;33098;52.400;16.880;2023-09-12T11:57:30;100411.29;;;31.73;42.11
24336;BME280;33098;52.400;16.880;2023-09-12T12:00:04;100409.17;;;31.85;43.18
24336;BME280;33098;52.400;16.880;2023-09-12T12:02:45;100408.17;;;31.98;42.57
24336;BME280;33098;52.400;16.880;2023-09-12T12:05:15;100406.30;;;32.08;42.80
24336;BME280;33098;52.400;16.880;2023-09-12T12:08:00;100410.80;;;32.21;41.47
24336;BME280;33098;52.400;16.880;2023-09-12T12:10:27;100411.58;;;32.32;42.29
24336;BME280;33098;52.400;16.880;2023-09-12T12:12:57;100416.16;;;32.53;42.45
24336;BME280;33098;52.400;16.880;2023-09-12T12:15:24;100408.91;;;32.61;41.77
24336;BME280;33098;52.400;16.880;2023-09-12T12:17:54;100408.77;;;32.68;42.17
24336;BME280;33098;52.400;16.880;2023-09-12T12:20:24;100410.40;;;32.84;41.95
24336;BME280;33098;52.400;16.880;2023-09-12T12:22:53;100408.23;;;32.91;41.50
24336;BME280;33098;52.400;16.880;2023-09-12T12:25:22;100403.73;;;33.01;42.12
24336;BME280;33098;52.400;16.880;2023-09-12T12:27:49;100398.56;;;33.15;42.26
24336;BME280;33098;52.400;16.880;2023-09-12T12:30:17;100399.52;;;33.25;42.03
24336;BME280;33098;52.400;16.880;2023-09-12T12:32:46;100399.21;;;33.28;40.70
24336;BME280;33098;52.400;16.880;2023-09-12T12:35:17;100394.66;;;33.20;41.32
24336;BME280;33098;52.400;16.880;2023-09-12T12:37:49;100396.26;;;33.22;40.92
24336;BME280;33098;52.400;16.880;2023-09-12T12:40:19;100390.53;;;33.26;41.30
24336;BME280;33098;52.400;16.880;2023-09-12T12:42:46;100387.80;;;33.37;40.86
24336;BME280;33098;52.400;16.880;2023-09-12T12:45:14;100385.48;;;33.38;38.81
24336;BME280;33098;52.400;16.880;2023-09-12T12:47:44;100383.89;;;33.44;40.24
24336;BME280;33098;52.400;16.880;2023-09-12T12:50:12;100383.66;;;33.75;40.58
24336;BME280;33098;52.400;16.880;2023-09-12T12:52:41;100379.34;;;33.97;38.93
24336;BME280;33098;52.400;16.880;2023-09-12T12:55:12;100370.29;;;34.16;39.55
24336;BME280;33098;52.400;16.880;2023-09-12T12:57:41;100369.41;;;34.33;38.49
24336;BME280;33098;52.400;16.880;2023-09-12T13:00:14;100365.91;;;34.46;38.13
24336;BME280;33098;52.400;16.880;2023-09-12T13:02:45;100362.63;;;34.59;37.60
24336;BME280;33098;52.400;16.880;2023-09-12T13:05:25;100360.23;;;34.74;38.18